Time;durP1;ratioP1;P1;durP2;ratioP2;P2;SDS_P1;SDS_P2;PMS_P1;PMS_P2;Temp;Humidity;BMP_temperature;BMP_pressure;BME280_temperature;BME280_humidity;BME280_pressure;Samples;Min_cycle;Max_cycle;Signal;HPM_P1;HPM_P2
2023/06/20 00:02:25;;;;;;;;;;;18.40;78.70;;;-151.14;100.00;62537.16;5031039;28;19927;-90
2023/06/20 00:04:52;;;;;;;;;;;18.40;78.70;;;-151.14;100.00;62537.16;5014353;28;19928;-90
2023/06/20 00:07:20;;;;;;;;;;;18.40;78.80;;;-151.14;100.00;62537.16;5030973;28;19927;-89
2023/06/20 00:09:48;;;;;;;;;;;18.40;78.90;;;-151.14;100.00;62537.16;5031826;28;19943;-90
2023/06/20 00:12:16;;;;;;;;;;;18.40;78.80;;;-151.14;100.00;62537.16;5014276;28;19928;-89
2023/06/20 00:14:44;;;;;;;;;;;18.40;78.90;;;17.61;100.00;62537.16;5030391;28;20217;-89
2023/06/20 00:17:14;;;;;;;;;;;18.40;78.70;;;-151.14;100.00;62537.16;5030851;28;19921;-89
2023/06/20 00:19:42;;;;;;;;;;;18.40;78.60;;;-151.14;100.00;62537.16;5014210;28;19928;-89
2023/06/20 00:22:10;;;;;;;;;;;18.40;78.60;;;-151.14;100.00;62537.16;5014179;28;19921;-90
2023/06/20 00:24:38;;;;;;;;;;;18.40;78.70;;;-151.14;100.00;62537.16;5013957;28;19921;-89
2023/06/20 00:27:06;;;;;;;;;;;18.40;78.80;;;18.08;100.00;62537.16;5014180;28;19943;-89
2023/06/20 00:29:35;;;;;;;;;;;18.40;78.70;;;-151.14;100.00;62537.16;5014169;28;19921;-89
2023/06/20 00:32:03;;;;;;;;;;;18.40;78.70;;;17.57;100.00;62537.16;5013773;28;19921;-89
2023/06/20 00:34:32;;;;;;;;;;;18.40;78.60;;;-151.14;100.00;62537.16;5013860;28;20204;-90
2023/06/20 00:37:00;;;;;;;;;;;18.40;78.50;;;-151.14;100.00;62537.16;5014002;28;19943;-89
2023/06/20 00:39:28;;;;;;;;;;;18.40;79.30;;;-151.14;100.00;62537.16;5014149;28;19927;-89
2023/06/20 00:41:57;;;;;;;;;;;18.40;78.50;;;-151.14;100.00;62537.16;5013704;28;19928;-89
2023/06/20 00:44:26;;;;;;;;;;;18.40;78.50;;;-151.14;100.00;62537.16;5030228;28;19927;-89
2023/06/20 00:46:54;;;;;;;;;;;18.40;79.30;;;17.54;100.00;62537.16;5013984;28;20242;-89
2023/06/20 00:49:22;;;;;;;;;;;18.30;78.50;;;-151.14;100.00;62537.16;5013882;28;20212;-89
2023/06/20 00:51:51;;;;;;;;;;;18.30;78.40;;;-151.14;100.00;62537.16;5030295;28;19921;-90
2023/06/20 00:54:19;;;;;;;;;;;18.30;78.30;;;-151.14;100.00;62537.16;5013750;28;20097;-89
2023/06/20 00:56:47;;;;;;;;;;;18.30;78.50;;;17.49;100.00;62537.16;5030331;28;19927;-89
2023/06/20 00:59:15;;;;;;;;;;;18.30;78.30;;;-151.14;100.00;62537.16;5015789;28;19921;-89
2023/06/20 01:01:43;;;;;;;;;;;18.30;78.30;;;-151.14;100.00;62537.16;5016959;28;20235;-90
2023/06/20 01:04:12;;;;;;;;;;;18.30;78.40;;;-151.14;100.00;62537.16;5033409;28;20209;-88
2023/06/20 01:06:50;;;;;;;;;;;18.30;78.20;;;18.08;100.00;62537.16;5033368;28;20120;-89
2023/06/20 01:09:22;;;;;;;;;;;18.30;78.20;;;17.45;100.00;62537.16;5016997;28;19921;-88
2023/06/20 01:11:55;;;;;;;;;;;18.30;78.40;;;-151.14;100.00;62537.16;5016935;28;19935;-90
2023/06/20 01:14:32;;;;;;;;;;;18.30;78.50;;;-151.14;100.00;62537.16;5016927;28;19921;-87
2023/06/20 01:17:01;;;;;;;;;;;18.30;78.50;;;-151.14;100.00;62537.16;5016881;28;19921;-89
2023/06/20 01:19:37;;;;;;;;;;;18.30;78.60;;;;;;5016740;28;19932;-90
2023/06/20 01:22:06;;;;;;;;;;;18.30;78.40;;;-151.14;100.00;62537.16;5016706;28;20212;-89
2023/06/20 01:24:38;;;;;;;;;;;18.30;78.40;;;18.08;100.00;62537.16;5033245;28;19928;-90
2023/06/20 01:27:09;;;;;;;;;;;18.30;78.30;;;-151.14;100.00;62537.16;5016611;28;19928;-89
2023/06/20 01:29:41;;;;;;;;;;;18.30;78.20;;;-151.14;100.00;62537.16;5016841;28;19927;-89
2023/06/20 01:32:12;;;;;;;;;;;18.30;78.20;;;-151.14;100.00;62537.16;5016585;28;19921;-89
2023/06/20 01:34:58;;;;;;;;;;;18.30;78.30;;;-151.14;100.00;62537.16;5016496;28;19921;-89
2023/06/20 01:37:26;;;;;;;;;;;18.30;78.20;;;-151.14;100.00;62537.16;5016553;28;19927;-90
2023/06/20 01:39:56;;;;;;;;;;;18.30;78.10;;;-151.14;100.00;62537.16;5032566;28;19921;-90
2023/06/20 01:42:26;;;;;;;;;;;18.30;78.20;;;-151.14;100.00;62537.16;5015919;28;19944;-89
2023/06/20 01:44:54;;;;;;;;;;;18.30;78.20;;;-151.14;100.00;62537.16;5016042;28;19921;-89
2023/06/20 01:47:23;;;;;;;;;;;18.20;78.10;;;-151.14;100.00;62537.16;5016238;28;20209;-90
2023/06/20 01:49:52;;;;;;;;;;;18.20;78.00;;;-151.14;100.00;62537.16;5032574;28;19983;-90
2023/06/20 01:52:20;;;;;;;;;;;18.20;78.10;;;-151.14;100.00;62537.16;5015853;28;19921;-89
2023/06/20 01:54:48;;;;;;;;;;;18.20;78.10;;;17.41;100.00;62537.16;5032385;28;19921;-89
2023/06/20 01:57:18;;;;;;;;;;;18.20;78.10;;;17.41;100.00;62537.16;5015928;28;19927;-89
2023/06/20 01:59:46;;;;;;;;;;;18.20;78.00;;;17.41;100.00;83605.56;5015948;28;19923;-89
2023/06/20 02:02:14;;;;;;;;;;;18.20;77.90;;;-151.14;100.00;62537.16;5015731;28;20147;-89
2023/06/20 02:04:42;;;;;;;;;;;18.20;77.90;;;-151.14;100.00;62537.16;5015807;28;19921;-90
2023/06/20 02:07:10;;;;;;;;;;;18.20;78.00;;;-151.14;100.00;62537.16;5015784;28;19921;-89
2023/06/20 02:09:38;;;;;;;;;;;18.20;78.00;;;-151.14;100.00;62537.16;5015322;28;19928;-89
2023/06/20 02:12:08;;;;;;;;;;;18.20;78.00;;;-151.14;100.00;62537.16;5015634;28;20124;-89
2023/06/20 02:14:39;;;;;;;;;;;18.20;78.10;;;-151.14;100.00;62537.16;5015775;28;19927;-89
2023/06/20 02:17:07;;;;;;;;;;;18.20;78.10;;;17.40;100.00;62537.16;5032173;28;19921;-88
2023/06/20 02:19:35;;;;;;;;;;;18.20;78.20;;;-151.14;100.00;62537.16;5015756;28;19927;-89
2023/06/20 02:22:03;;;;;;;;;;;18.20;78.30;;;-151.14;100.00;62537.16;5031805;28;20209;-90
2023/06/20 02:24:32;;;;;;;;;;;18.20;78.10;;;17.41;100.00;62537.16;5015504;28;19921;-89
2023/06/20 02:27:00;;;;;;;;;;;18.20;77.90;;;17.41;100.00;96145.13;5015411;28;19921;-89
2023/06/20 02:29:28;;;;;;;;;;;18.20;77.90;;;-151.14;100.00;62537.16;5015041;28;19925;-90
2023/06/20 02:31:58;;;;;;;;;;;18.20;77.80;;;-151.14;100.00;62537.16;5014934;28;19928;-89
2023/06/20 02:34:26;;;;;;;;;;;18.20;77.70;;;-151.14;100.00;62537.16;5015120;28;19921;-90
2023/06/20 02:36:55;;;;;;;;;;;18.20;77.80;;;-151.14;100.00;62537.16;5032791;28;19921;-89
2023/06/20 02:39:24;;;;;;;;;;;18.20;77.60;;;-151.14;100.00;62537.16;5031750;28;19921;-90
2023/06/20 02:41:52;;;;;;;;;;;18.20;77.60;;;-151.14;100.00;62537.16;5015145;28;19927;-89
2023/06/20 02:44:20;;;;;;;;;;;18.20;77.40;;;-151.14;100.00;62537.16;5015135;28;19921;-89
2023/06/20 02:46:53;;;;;;;;;;;18.20;77.40;;;-151.14;100.00;62537.16;5015248;28;19928;-89
2023/06/20 02:49:26;;;;;;;;;;;18.20;77.50;;;17.35;100.00;62537.16;5031388;28;20366;-89
2023/06/20 02:52:00;;;;;;;;;;;18.20;77.50;;;-151.14;100.00;62537.16;5014232;28;19940;-89
2023/06/20 02:54:30;;;;;;;;;;;18.20;77.40;;;187.61;100.00;62537.16;5030581;28;19929;-89
2023/06/20 02:56:59;;;;;;;;;;;18.20;77.50;;;-151.14;100.00;62537.16;5015350;28;19921;-90
2023/06/20 02:59:27;;;;;;;;;;;18.20;77.40;;;-151.14;100.00;62537.16;5014846;28;19921;-89
2023/06/20 03:01:57;;;;;;;;;;;18.20;77.30;;;-151.14;100.00;62537.16;5031242;28;20145;-90
2023/06/20 03:04:28;;;;;;;;;;;18.20;77.30;;;-151.14;100.00;62537.16;5014911;28;20213;-88
2023/06/20 03:06:56;;;;;;;;;;;18.20;77.20;;;-151.14;100.00;62537.16;5011520;28;19921;-89
2023/06/20 03:09:24;;;;;;;;;;;18.20;77.20;;;18.12;100.00;62537.16;5011542;28;19928;-88
2023/06/20 03:11:52;;;;;;;;;;;18.20;77.40;;;-151.14;100.00;62537.16;5011325;28;19921;-89
2023/06/20 03:14:20;;;;;;;;;;;18.20;77.50;;;-151.14;100.00;62537.16;4995140;28;19921;-89
2023/06/20 03:16:48;;;;;;;;;;;18.20;77.60;;;-151.14;100.00;62537.16;4995189;28;20117;-88
2023/06/20 03:19:16;;;;;;;;;;;18.20;77.40;;;-151.14;100.00;62537.16;5011296;28;19929;-89
2023/06/20 03:21:46;;;;;;;;;;;18.20;77.30;;;-151.14;100.00;62537.16;5010298;28;20116;-90
2023/06/20 03:24:16;;;;;;;;;;;18.20;77.20;;;-151.14;100.00;62537.16;5011352;28;19921;-89
2023/06/20 03:26:44;;;;;;;;;;;18.20;77.20;;;-151.14;100.00;62537.16;4995164;28;19928;-89
2023/06/20 03:29:12;;;;;;;;;;;18.10;77.20;;;-151.14;100.00;62537.16;4994946;28;19921;-90
2023/06/20 03:31:41;;;;;;;;;;;18.20;77.00;;;-151.14;100.00;62537.16;4994907;28;19928;-89
2023/06/20 03:34:09;;;;;;;;;;;18.20;77.00;;;-151.14;100.00;62537.16;5010946;28;20218;-89
2023/06/20 03:36:38;;;;;;;;;;;18.20;77.20;;;-151.14;100.00;62537.16;4994942;28;19921;-89
2023/06/20 03:39:08;;;;;;;;;;;18.20;77.20;;;-151.14;100.00;62537.16;5011201;28;19925;-89
2023/06/20 03:41:36;;;;;;;;;;;18.20;77.20;;;-151.14;100.00;62537.16;5010946;28;19928;-89
2023/06/20 03:44:05;;;;;;;;;;;18.20;77.00;;;-151.14;100.00;62537.16;4994590;28;19921;-89
2023/06/20 03:46:33;;;;;;;;;;;18.20;76.70;;;-151.14;100.00;62537.16;4994832;28;19928;-89
2023/06/20 03:49:01;;;;;;;;;;;18.20;76.90;;;-151.14;100.00;62537.16;5010936;28;20210;-89
2023/06/20 03:51:30;;;;;;;;;;;18.10;77.00;;;-151.14;100.00;62537.16;5001639;28;19922;-90
2023/06/20 03:53:58;;;;;;;;;;;18.20;77.00;;;-151.14;100.00;62537.16;4994554;28;19988;-89
2023/06/20 03:56:27;;;;;;;;;;;18.20;77.80;;;-151.14;100.00;62537.16;4994813;28;19921;-89
2023/06/20 03:58:55;;;;;;;;;;;18.20;76.90;;;-151.14;100.00;62537.16;5011132;28;19921;-89
2023/06/20 04:01:24;;;;;;;;;;;18.20;77.20;;;-151.14;100.00;62537.16;4994293;28;20209;-89
2023/06/20 04:03:52;;;;;;;;;;;18.20;77.20;;;-151.14;100.00;62537.16;5010816;28;19928;-89
2023/06/20 04:06:20;;;;;;;;;;;18.20;77.20;;;-151.14;100.00;62537.16;4994662;28;19944;-90
2023/06/20 04:08:48;;;;;;;;;;;18.20;76.90;;;-151.14;100.00;62537.16;4994603;28;19921;-89
2023/06/20 04:11:16;;;;;;;;;;;18.20;77.20;;;-151.14;100.00;62537.16;4994191;28;20239;-89
2023/06/20 04:13:47;;;;;;;;;;;18.20;77.60;;;-151.14;100.00;62537.16;4994414;28;19922;-89
2023/06/20 04:16:15;;;;;;;;;;;18.20;77.50;;;;;;4999501;28;19921;-89
2023/06/20 04:18:43;;;;;;;;;;;18.20;77.70;;;-151.14;100.00;62537.16;5013940;28;19921;-87
2023/06/20 04:21:11;;;;;;;;;;;18.20;77.80;;;-151.14;100.00;62537.16;5013619;28;19943;-89
2023/06/20 04:23:39;;;;;;;;;;;18.20;77.70;;;-151.14;100.00;62537.16;5030294;28;19921;-89
2023/06/20 04:26:11;;;;;;;;;;;18.20;77.80;;;-151.14;100.00;62537.16;5013744;28;20216;-89
2023/06/20 04:28:39;;;;;;;;;;;18.20;77.70;;;-151.14;100.00;62537.16;5030311;28;19925;-89
2023/06/20 04:31:08;;;;;;;;;;;18.10;78.00;;;-151.14;100.00;62537.16;5029874;28;19980;-89
2023/06/20 04:33:41;;;;;;;;;;;18.20;78.30;;;-151.14;100.00;62537.16;5016287;28;20235;-89
2023/06/20 04:36:12;;;;;;;;;;;18.10;78.20;;;-151.14;100.00;62537.16;5017024;28;19929;-89
2023/06/20 04:38:41;;;;;;;;;;;18.20;78.70;;;-151.14;100.00;62537.16;5017143;28;19921;-88
2023/06/20 04:41:09;;;;;;;;;;;18.20;78.90;;;-151.14;100.00;62537.16;5016987;28;20094;-90
2023/06/20 04:43:37;;;;;;;;;;;18.20;79.40;;;-151.14;100.00;62537.16;5016960;28;19927;-89
2023/06/20 04:46:06;;;;;;;;;;;18.20;79.20;;;17.52;100.00;62537.16;5016905;28;19921;-89
2023/06/20 04:48:36;;;;;;;;;;;18.30;79.20;;;-151.14;100.00;62537.16;4997349;28;19928;-89
2023/06/20 04:51:08;;;;;;;;;;;18.30;79.20;;;-151.14;100.00;62537.16;4997275;28;19944;-89
2023/06/20 04:53:36;;;;;;;;;;;18.30;79.40;;;60.43;100.00;62537.16;4997377;28;19927;-89
2023/06/20 04:56:04;;;;;;;;;;;18.30;78.80;;;17.63;100.00;62537.16;4997255;28;19947;-89
2023/06/20 04:58:32;;;;;;;;;;;18.40;79.00;;;-151.14;100.00;62537.16;4997141;28;19925;-89
2023/06/20 05:01:01;;;;;;;;;;;18.40;79.10;;;17.71;100.00;62537.16;5014426;28;19922;-89
2023/06/20 05:03:29;;;;;;;;;;;18.50;79.00;;;-151.14;100.00;62537.16;5013021;28;20213;-88
2023/06/20 05:05:59;;;;;;;;;;;18.50;79.00;;;-151.14;100.00;62537.16;4997021;28;19928;-89
2023/06/20 05:08:27;;;;;;;;;;;18.60;78.90;;;17.81;100.00;62537.16;5012893;28;20209;-89
2023/06/20 05:10:55;;;;;;;;;;;18.60;78.90;;;-151.14;100.00;62537.16;5016649;28;19921;-89
2023/06/20 05:13:23;;;;;;;;;;;18.60;78.80;;;-151.14;100.00;62537.16;5032703;28;20235;-89
2023/06/20 05:15:51;;;;;;;;;;;18.60;78.70;;;17.86;100.00;106994.31;5032893;28;19921;-90
2023/06/20 05:18:19;;;;;;;;;;;18.60;78.80;;;17.88;100.00;62537.16;5033021;28;19921;-89
2023/06/20 05:20:47;;;;;;;;;;;18.60;78.80;;;-151.14;100.00;62537.16;5033908;28;20112;-89
2023/06/20 05:23:17;;;;;;;;;;;18.70;78.70;;;-151.14;100.00;62537.16;5015572;28;19930;-90
2023/06/20 05:25:45;;;;;;;;;;;18.70;78.90;;;17.94;100.00;62537.16;5016248;28;19921;-89
2023/06/20 05:28:13;;;;;;;;;;;18.70;78.60;;;-151.14;100.00;62537.16;5032828;28;19921;-89
2023/06/20 05:30:41;;;;;;;;;;;18.70;78.70;;;-151.14;100.00;62537.16;5016140;28;19921;-89
2023/06/20 05:33:09;;;;;;;;;;;18.70;78.70;;;-151.14;100.00;62537.16;5015869;28;19927;-89
2023/06/20 05:35:37;;;;;;;;;;;18.70;78.60;;;-151.14;100.00;62537.16;5032364;28;19921;-89
2023/06/20 05:38:05;;;;;;;;;;;18.70;78.60;;;-151.14;100.00;62537.16;5016113;28;19922;-89
2023/06/20 05:40:35;;;;;;;;;;;18.70;78.30;;;-151.14;100.00;62537.16;5016116;28;19921;-89
2023/06/20 05:43:03;;;;;;;;;;;18.70;78.30;;;-151.14;100.00;62537.16;5015579;28;19921;-89
2023/06/20 05:45:31;;;;;;;;;;;18.80;78.70;;;-151.14;100.00;62537.16;5031664;28;19921;-90
2023/06/20 05:47:59;;;;;;;;;;;18.80;78.60;;;17.99;100.00;106994.31;5016114;28;20225;-89
2023/06/20 05:50:27;;;;;;;;;;;18.80;78.60;;;-151.14;100.00;62537.16;5032147;28;19927;-89
2023/06/20 05:52:55;;;;;;;;;;;18.80;78.80;;;18.02;100.00;106994.31;5015590;28;19922;-89
2023/06/20 05:55:23;;;;;;;;;;;18.80;78.60;;;18.05;100.00;62537.16;5015756;28;19921;-90
2023/06/20 05:57:52;;;;;;;;;;;18.80;78.50;;;18.07;100.00;106994.31;5015800;28;19929;-89
2023/06/20 06:00:21;;;;;;;;;;;18.90;78.50;;;-151.14;100.00;62537.16;5015822;28;19928;-89
2023/06/20 06:02:49;;;;;;;;;;;18.90;78.80;;;18.14;100.00;62537.16;5031660;28;20235;-89
2023/06/20 06:05:17;;;;;;;;;;;18.90;78.60;;;-151.14;100.00;62537.16;5015581;28;19921;-89
2023/06/20 06:07:45;;;;;;;;;;;19.00;78.50;;;39.25;100.00;62537.16;5032415;28;19927;-89
2023/06/20 06:10:13;;;;;;;;;;;19.00;78.50;;;-151.14;100.00;62537.16;5015608;28;19921;-90
2023/06/20 06:12:42;;;;;;;;;;;19.00;78.50;;;-151.14;100.00;62537.16;5015231;28;19921;-89
2023/06/20 06:15:11;;;;;;;;;;;19.00;78.40;;;18.31;100.00;62537.16;5015643;28;19921;-90
2023/06/20 06:17:39;;;;;;;;;;;19.10;78.20;;;18.32;100.00;62537.16;5015537;28;19921;-89
2023/06/20 06:20:12;;;;;;;;;;;19.10;78.20;;;-151.14;100.00;62537.16;5015430;28;19921;-89
2023/06/20 06:22:40;;;;;;;;;;;19.10;78.20;;;-151.14;100.00;62537.16;5015241;28;19921;-89
2023/06/20 06:25:08;;;;;;;;;;;19.20;78.00;;;-151.14;100.00;62537.16;5015534;28;19922;-89
2023/06/20 06:27:36;;;;;;;;;;;19.20;78.00;;;-151.14;100.00;62537.16;5015457;28;19935;-89
2023/06/20 06:30:05;;;;;;;;;;;19.20;77.80;;;-151.14;100.00;62537.16;5015358;28;19921;-89
2023/06/20 06:32:35;;;;;;;;;;;19.20;77.80;;;-151.14;100.00;62537.16;5031167;28;20102;-89
2023/06/20 06:35:04;;;;;;;;;;;19.20;77.70;;;18.48;100.00;62537.16;5015131;28;19921;-89
2023/06/20 06:37:32;;;;;;;;;;;19.20;77.50;;;-151.14;100.00;62537.16;5015220;28;19928;-88
2023/06/20 06:40:00;;;;;;;;;;;19.30;77.50;;;-151.14;100.00;62537.16;5015199;28;19927;-89
2023/06/20 06:42:28;;;;;;;;;;;19.30;77.40;;;-151.14;100.00;62537.16;5014381;28;19928;-89
2023/06/20 06:44:56;;;;;;;;;;;19.30;77.30;;;-151.14;100.00;62537.16;5015018;28;19921;-89
2023/06/20 06:47:24;;;;;;;;;;;19.30;77.20;;;-151.14;100.00;62537.16;5015053;28;19921;-88
2023/06/20 06:49:54;;;;;;;;;;;19.40;76.90;;;18.67;100.00;62537.16;5015066;28;19921;-88
2023/06/20 06:52:22;;;;;;;;;;;19.40;76.70;;;-151.14;100.00;62537.16;5014601;28;19922;-90
2023/06/20 06:54:50;;;;;;;;;;;19.40;76.50;;;-151.14;100.00;62537.16;5031345;28;19927;-89
2023/06/20 06:57:18;;;;;;;;;;;19.50;76.50;;;-151.14;100.00;62537.16;5014936;28;19927;-88
2023/06/20 06:59:46;;;;;;;;;;;19.50;76.50;;;-151.14;100.00;62537.16;5031331;28;20132;-89
2023/06/20 07:02:14;;;;;;;;;;;19.50;76.50;;;-151.14;100.00;62537.16;5030723;28;19927;-89
2023/06/20 07:04:42;;;;;;;;;;;19.50;76.30;;;;;;5014789;28;19925;-89
2023/06/20 07:07:11;;;;;;;;;;;19.50;76.20;;;18.87;100.00;62537.16;5014904;28;19927;-89
2023/06/20 07:09:39;;;;;;;;;;;19.60;76.10;;;-151.14;100.00;62537.16;5014711;28;19921;-89
2023/06/20 07:12:08;;;;;;;;;;;19.60;76.10;;;-151.14;100.00;62537.16;5014516;28;19921;-90
2023/06/20 07:14:36;;;;;;;;;;;19.60;76.40;;;-151.14;100.00;62537.16;5014622;28;19928;-88
2023/06/20 07:17:04;;;;;;;;;;;19.60;76.40;;;18.94;100.00;62537.16;5014619;28;19921;-88
2023/06/20 07:19:32;;;;;;;;;;;19.70;76.40;;;-151.14;100.00;62537.16;5031167;28;20121;-88
2023/06/20 07:22:02;;;;;;;;;;;19.70;76.20;;;-151.14;100.00;62537.16;5030696;28;19921;-88
2023/06/20 07:24:32;;;;;;;;;;;19.70;76.30;;;-151.14;100.00;62537.16;5014427;28;19921;-87
2023/06/20 07:27:00;;;;;;;;;;;19.70;76.20;;;18.99;100.00;83732.28;5014224;28;19921;-88
2023/06/20 07:29:28;;;;;;;;;;;19.70;76.30;;;-151.14;100.00;62537.16;5014374;28;19921;-88
2023/06/20 07:31:56;;;;;;;;;;;19.70;76.10;;;19.01;100.00;62537.16;5014109;28;19921;-88
2023/06/20 07:34:24;;;;;;;;;;;19.70;76.00;;;19.04;100.00;62537.16;5030717;28;19921;-88
2023/06/20 07:37:09;;;;;;;;;;;19.70;75.90;;;-151.14;100.00;62537.16;4346947;32;19902;-89
2023/06/20 07:39:39;;;;;;;;;;;19.80;75.90;;;-151.14;100.00;62537.16;5086385;28;34030;-88
2023/06/20 07:42:08;;;;;;;;;;;19.80;76.00;;;-151.14;100.00;62537.16;5087020;28;20116;-89
2023/06/20 07:44:36;;;;;;;;;;;19.80;75.90;;;-151.14;100.00;62537.16;5070566;28;19928;-88
2023/06/20 07:47:05;;;;;;;;;;;19.80;75.80;;;-151.14;100.00;62537.16;5088628;28;19920;-88
2023/06/20 07:49:33;;;;;;;;;;;19.80;75.80;;;-151.14;100.00;62537.16;5104354;28;19927;-89
2023/06/20 07:52:01;;;;;;;;;;;19.80;75.90;;;-151.14;100.00;62537.16;5086842;28;19927;-88
2023/06/20 07:54:31;;;;;;;;;;;19.80;75.70;;;-151.14;100.00;62537.16;5070312;28;19921;-88
2023/06/20 07:57:00;;;;;;;;;;;19.90;76.00;;;-151.14;100.00;62537.16;5087129;28;19924;-89
2023/06/20 07:59:28;;;;;;;;;;;19.90;75.70;;;-151.14;100.00;62537.16;5087136;28;19934;-88
2023/06/20 08:01:56;;;;;;;;;;;19.90;75.70;;;-151.14;100.00;62537.16;5086780;28;19934;-88
2023/06/20 08:04:24;;;;;;;;;;;19.90;75.80;;;-151.14;100.00;62537.16;5070336;28;19921;-88
2023/06/20 08:06:52;;;;;;;;;;;19.90;75.70;;;-151.14;100.00;62537.16;5088267;28;19927;-88
2023/06/20 08:09:20;;;;;;;;;;;19.90;75.60;;;-151.14;100.00;62537.16;5070164;28;19920;-88
2023/06/20 08:11:49;;;;;;;;;;;19.90;75.80;;;-151.14;100.00;62537.16;5069527;28;19926;-88
2023/06/20 08:14:19;;;;;;;;;;;19.90;75.70;;;-151.14;100.00;62537.16;5086730;28;19931;-88
2023/06/20 08:16:47;;;;;;;;;;;19.90;75.60;;;-151.14;100.00;62537.16;5086611;28;19934;-88
2023/06/20 08:19:15;;;;;;;;;;;19.90;75.70;;;-151.14;100.00;62537.16;5086938;28;19942;-88
2023/06/20 08:21:43;;;;;;;;;;;19.90;75.70;;;-151.14;100.00;62537.16;5086120;28;20234;-89
2023/06/20 08:24:11;;;;;;;;;;;19.90;75.50;;;-151.14;100.00;62537.16;5069926;28;20123;-88
2023/06/20 08:26:39;;;;;;;;;;;19.90;75.60;;;-151.14;100.00;62537.16;5086550;28;19927;-88
2023/06/20 08:29:10;;;;;;;;;;;19.90;76.40;;;-151.14;100.00;62537.16;5086640;28;19920;-88
2023/06/20 08:31:39;;;;;;;;;;;19.90;75.60;;;-151.14;100.00;62537.16;5086163;28;19921;-87
2023/06/20 08:34:07;;;;;;;;;;;19.90;75.60;;;-151.14;100.00;62537.16;5069878;28;19920;-87
2023/06/20 08:36:36;;;;;;;;;;;19.90;75.80;;;-151.14;100.00;62537.16;5085669;28;19927;-88
2023/06/20 08:39:04;;;;;;;;;;;19.90;75.80;;;-151.14;100.00;62537.16;5089695;28;19920;-88
2023/06/20 08:41:32;;;;;;;;;;;19.90;75.60;;;-151.14;100.00;62537.16;5106159;28;19926;-88
2023/06/20 08:44:00;;;;;;;;;;;19.90;75.50;;;-151.14;100.00;62537.16;5106698;28;19927;-88
2023/06/20 08:46:31;;;;;;;;;;;19.90;75.60;;;-151.14;100.00;62537.16;5095818;28;20119;-87
2023/06/20 08:48:59;;;;;;;;;;;19.90;75.60;;;-151.14;100.00;62537.16;5093338;28;20212;-87
2023/06/20 08:51:28;;;;;;;;;;;19.80;75.50;;;-151.14;100.00;62537.16;5075634;28;20239;-88
2023/06/20 08:53:56;;;;;;;;;;;19.80;75.70;;;18.08;100.00;62537.16;5093994;28;19938;-88
2023/06/20 08:56:24;;;;;;;;;;;19.80;75.90;;;-151.14;100.00;62537.16;5092909;28;20251;-88
2023/06/20 08:58:51;;;;;;;;;;;19.80;76.10;;;-151.14;100.00;62537.16;5092927;28;19920;-88
2023/06/20 09:01:19;;;;;;;;;;;19.70;76.30;;;-151.14;100.00;62537.16;5075561;28;19920;-88
2023/06/20 09:03:54;;;;;;;;;;;19.70;76.50;;;-151.14;100.00;62537.16;5075947;28;19927;-88
2023/06/20 09:06:32;;;;;;;;;;;19.60;76.40;;;18.83;100.00;62537.16;5092832;28;19926;-87
2023/06/20 09:09:00;;;;;;;;;;;19.60;76.60;;;-151.14;100.00;62537.16;5092374;28;19924;-88
2023/06/20 09:11:28;;;;;;;;;;;19.60;76.60;;;-151.14;100.00;62537.16;5075540;28;19920;-88
2023/06/20 09:14:00;;;;;;;;;;;19.60;76.40;;;-151.14;100.00;62537.16;5075881;28;19920;-88
2023/06/20 09:16:29;;;;;;;;;;;19.60;76.40;;;-151.14;100.00;62537.16;5092658;28;19920;-87
2023/06/20 09:19:00;;;;;;;;;;;19.60;76.40;;;-151.14;100.00;62537.16;5075763;28;19934;-88
2023/06/20 09:21:28;;;;;;;;;;;19.70;76.40;;;-151.14;100.00;62537.16;5092100;28;19920;-87
2023/06/20 09:24:02;;;;;;;;;;;19.70;76.30;;;-151.14;100.00;62537.16;5092435;28;20235;-87
2023/06/20 09:26:30;;;;;;;;;;;19.70;76.30;;;-151.14;100.00;62537.16;5092649;28;19920;-88
2023/06/20 09:29:09;;;;;;;;;;;19.70;76.60;;;-151.14;100.00;62537.16;5075468;28;19924;-87
2023/06/20 09:31:41;;;;;;;;;;;19.80;76.20;;;-151.14;100.00;62537.16;5075171;28;20101;-88
2023/06/20 09:34:14;;;;;;;;;;;19.70;76.00;;;-151.14;100.00;62537.16;5092341;28;19920;-87
2023/06/20 09:36:43;;;;;;;;;;;19.80;76.10;;;18.97;100.00;62537.16;5109241;28;19927;-87
2023/06/20 09:39:12;;;;;;;;;;;19.70;76.20;;;;;;5093375;28;19921;-87
2023/06/20 09:41:46;;;;;;;;;;;19.80;76.20;;;-151.14;100.00;62537.16;5076999;28;20203;-87
2023/06/20 09:44:14;;;;;;;;;;;19.70;76.20;;;-151.14;100.00;62537.16;5092213;28;19926;-87
2023/06/20 09:46:42;;;;;;;;;;;19.80;76.10;;;18.08;100.00;62537.16;5075511;28;19920;-87
2023/06/20 09:49:12;;;;;;;;;;;19.80;76.10;;;-151.14;100.00;62537.16;5091950;28;19921;-87
2023/06/20 09:51:43;;;;;;;;;;;19.80;76.10;;;18.93;100.00;62537.16;5091428;28;20234;-87
2023/06/20 09:54:12;;;;;;;;;;;19.80;76.10;;;-151.14;100.00;62537.16;5075220;28;20278;-87
2023/06/20 09:56:44;;;;;;;;;;;19.80;76.10;;;18.93;100.00;62537.16;5075102;28;19920;-88
2023/06/20 09:59:12;;;;;;;;;;;19.70;76.20;;;-151.14;100.00;62537.16;5073926;28;19920;-88
2023/06/20 10:01:40;;;;;;;;;;;19.70;76.10;;;-151.14;100.00;62537.16;5091458;28;19926;-88
2023/06/20 10:04:08;;;;;;;;;;;19.70;76.10;;;-151.14;100.00;62537.16;5091967;28;20111;-88
2023/06/20 10:06:37;;;;;;;;;;;19.80;76.10;;;;;;5091909;28;19927;-87
2023/06/20 10:09:07;;;;;;;;;;;19.80;76.20;;;-151.14;100.00;62537.16;5091759;28;19924;-88
2023/06/20 10:11:36;;;;;;;;;;;19.70;76.10;;;18.92;100.00;62537.16;5091484;28;20221;-87
2023/06/20 10:14:04;;;;;;;;;;;19.70;76.20;;;-151.14;100.00;62537.16;5074774;28;19926;-87
2023/06/20 10:16:33;;;;;;;;;;;19.70;76.10;;;-151.14;100.00;62537.16;5074748;28;20212;-87
2023/06/20 10:19:17;;;;;;;;;;;19.70;75.80;;;-151.14;100.00;62537.16;5091343;28;19920;-87
2023/06/20 10:21:57;;;;;;;;;;;19.70;76.00;;;-151.14;100.00;62537.16;5074302;28;19920;-87
2023/06/20 10:24:30;;;;;;;;;;;19.70;76.00;;;-151.14;100.00;62537.16;5074553;28;19920;-87
2023/06/20 10:27:00;;;;;;;;;;;19.70;76.00;;;-151.14;100.00;62537.16;5091547;28;19920;-87
2023/06/20 10:29:28;;;;;;;;;;;19.70;76.00;;;18.92;100.00;62537.16;5091081;28;20212;-87
2023/06/20 10:31:57;;;;;;;;;;;19.70;76.00;;;-151.14;100.00;62537.16;5090870;28;19920;-87
2023/06/20 10:34:29;;;;;;;;;;;19.70;75.90;;;-151.14;100.00;62537.16;5091167;28;19927;-87
2023/06/20 10:37:16;;;;;;;;;;;19.70;76.00;;;-151.14;100.00;62537.16;5091262;28;20222;-87
2023/06/20 10:39:55;;;;;;;;;;;19.70;76.90;;;18.90;100.00;62537.16;5092346;28;19920;-87
2023/06/20 10:42:37;;;;;;;;;;;19.70;76.10;;;-151.14;100.00;62537.16;5090691;28;19920;-87
2023/06/20 10:45:18;;;;;;;;;;;19.70;76.10;;;-151.14;100.00;62537.16;5092295;28;19927;-87
2023/06/20 10:47:46;;;;;;;;;;;19.70;76.20;;;-151.14;100.00;62537.16;5091203;28;20092;-87
2023/06/20 10:50:14;;;;;;;;;;;19.70;76.20;;;-151.14;100.00;62537.16;5091021;28;19920;-87
2023/06/20 10:52:42;;;;;;;;;;;19.70;76.00;;;-151.14;100.00;62537.16;5073560;28;19920;-87
2023/06/20 10:55:15;;;;;;;;;;;19.70;76.00;;;-151.14;100.00;62537.16;5092015;28;20226;-87
2023/06/20 10:57:47;;;;;;;;;;;19.70;76.00;;;-151.14;100.00;62537.16;5074137;28;19927;-87
2023/06/20 11:00:17;;;;;;;;;;;19.70;75.90;;;-151.14;100.00;62537.16;5074200;28;19920;-87
2023/06/20 11:02:46;;;;;;;;;;;19.80;75.90;;;-151.14;100.00;62537.16;5090275;28;20142;-87
2023/06/20 11:05:14;;;;;;;;;;;19.70;75.80;;;-151.14;100.00;62537.16;5090646;28;19920;-86
2023/06/20 11:07:55;;;;;;;;;;;19.70;75.90;;;-151.14;100.00;62537.16;5074020;28;20230;-88
2023/06/20 11:10:27;;;;;;;;;;;19.70;75.90;;;-151.14;100.00;62537.16;5091556;28;19920;-87